Latest Weather Observations for Melbourne (Olympic Park)

IDV60801

Issued at 11:03 am EDT Friday 24 March 2017 (issued every 30 minutes, with the page automatically refreshed every 10 minutes)

About weather observations | Map of weather stations | Latest weather observations for VIC | Other Formats
Station Details ID: 086338 Name: MELBOURNE (OLYMPIC PARK) Lat: -37.83 Lon: 144.98 Height: 7.53 m
Data from the previous 72 hours. | See also: Recent months at Melbourne (Olympic Park)
Date/Time
EDT
Temp
°C
App
Temp
°C
Dew
Point
°C
Rel
Hum
%
Delta-T
°C
Wind Press
QNH
hPa
Press
MSL
hPa
Rain since
9am
mm
Dir  Spd
km/h
Gust
km/h
Spd
kts
Gust
kts
24/11:00am 19.5 18.7 12.8 65 3.8 ENE 9 15 5 8 1019.8 1019.8 0.0
24/10:30am 18.5 17.8 13.1 71 3.0 NNE 9 13 5 7 1019.7 1019.7 0.0
24/10:00am 17.0 16.9 13.3 79 2.1 NNE 6 11 3 6 1020.0 1020.0 0.0
24/09:30am 16.7 15.9 13.0 79 2.1 NE 9 13 5 7 1019.9 1019.9 0.0
24/09:00am 15.3 14.8 12.8 85 1.4 NE 7 11 4 6 1019.8 1019.8 0.0
24/08:30am 14.5 14.2 12.7 89 1.0 NE 6 9 3 5 1019.7 1019.7 0.0
24/08:00am 14.2 15.1 12.9 92 0.7 CALM 0 6 0 3 1019.5 1019.5 0.0
24/07:30am 14.1 14.7 13.0 93 0.6 NE 2 9 1 5 1019.0 1019.0 0.0
24/07:00am 14.0 15.1 13.5 97 0.3 CALM 0 0 0 0 1018.7 1018.7 0.0
24/06:30am 14.0 15.1 13.5 97 0.3 CALM 0 0 0 0 1018.6 1018.6 0.0
24/06:00am 14.0 15.0 13.2 95 0.4 CALM 0 0 0 0 1018.7 1018.7 0.0
24/05:30am 14.2 15.2 13.1 93 0.6 CALM 0 0 0 0 1018.7 1018.7 0.0
24/05:00am 14.6 15.5 13.0 90 0.9 CALM 0 0 0 0 1018.7 1018.7 0.0
24/04:30am 14.9 15.8 12.8 87 1.2 CALM 0 0 0 0 1018.6 1018.6 0.0
24/04:00am 15.4 16.4 13.1 86 1.3 CALM 0 6 0 3 1018.8 1018.8 0.0
24/03:30am 15.2 16.3 13.4 89 1.0 CALM 0 6 0 3 1019.1 1019.1 0.0
24/03:00am 15.9 16.9 13.2 84 1.5 CALM 0 0 0 0 1019.7 1019.7 0.0
24/02:30am 16.6 17.1 12.9 79 2.1 E 2 7 1 4 1019.7 1019.7 0.0
24/02:00am 16.7 16.3 13.0 79 2.1 ESE 7 11 4 6 1019.7 1019.7 0.0
24/01:30am 16.8 17.0 12.9 78 2.2 ESE 4 13 2 7 1020.0 1020.0 0.0
24/01:00am 17.0 16.6 13.1 78 2.2 ESE 7 13 4 7 1019.9 1019.9 0.0
24/12:30am 17.2 16.8 13.1 77 2.3 ESE 7 15 4 8 1020.0 1020.0 0.0
24/12:00am 17.4 15.9 13.1 76 2.4 ESE 13 20 7 11 1019.8 1019.8 0.0
 
Date/Time
EDT
Temp
°C
App
Temp
°C
Dew
Point
°C
Rel
Hum
%
Delta-T
°C
Wind Press
QNH
hPa
Press
MSL
hPa
Rain since
9am
mm
Dir  Spd
km/h
Gust
km/h
Spd
kts
Gust
kts
23/11:30pm 17.7 16.2 13.2 75 2.5 ESE 13 26 7 14 1020.2 1020.2 0.0
23/11:00pm 18.0 16.6 13.5 75 2.5 SE 13 26 7 14 1020.0 1020.0 0.0
23/10:30pm 18.4 17.0 13.5 73 2.8 SE 13 24 7 13 1020.5 1020.5 0.0
23/10:00pm 18.7 17.4 13.8 73 2.8 SE 13 24 7 13 1020.3 1020.3 0.0
23/09:30pm 19.0 17.7 13.6 71 3.1 SE 13 26 7 14 1019.8 1019.8 0.0
23/09:00pm 19.4 17.7 13.6 69 3.3 SE 15 30 8 16 1019.5 1019.5 0.0
23/08:30pm 19.8 18.1 13.7 68 3.5 SE 15 32 8 17 1019.1 1019.1 0.0
23/08:00pm 20.3 19.0 13.7 66 3.8 SE 13 24 7 13 1018.5 1018.5 0.0
23/07:30pm 20.9 19.6 13.8 64 4.1 SE 13 33 7 18 1018.3 1018.3 0.0
23/07:00pm 21.7 19.3 13.9 61 4.5 SE 19 32 10 17 1018.3 1018.3 0.0
23/06:30pm 23.0 21.3 13.5 55 5.5 SE 15 32 8 17 1018.2 1018.2 0.0
23/06:00pm 23.6 21.5 13.5 53 5.9 SE 17 32 9 17 1017.9 1017.9 0.0
23/05:30pm 24.0 21.4 13.2 50 6.3 SE 19 33 10 18 1017.8 1017.8 0.0
23/05:00pm 24.2 21.9 13.1 50 6.4 SSE 17 30 9 16 1017.8 1017.8 0.0
23/04:30pm 23.6 20.9 12.9 51 6.2 SE 19 28 10 15 1018.0 1018.0 0.0
23/04:00pm 23.9 21.5 12.8 49 6.4 SSE 17 24 9 13 1018.0 1018.0 0.0
23/03:30pm 24.4 22.1 13.0 49 6.6 SE 17 30 9 16 1018.1 1018.1 0.0
23/03:00pm 24.2 21.9 13.1 50 6.4 SE 17 30 9 16 1018.3 1018.3 0.0
23/02:30pm 24.2 22.2 12.8 49 6.6 ESE 15 24 8 13 1018.7 1018.7 0.0
23/02:00pm 23.5 21.1 12.5 50 6.3 ESE 17 28 9 15 1019.0 1019.0 0.0
23/01:30pm 23.7 22.4 13.6 53 5.9 SE 13 24 7 13 1019.2 1019.2 0.0
23/01:00pm 22.5 20.5 12.7 54 5.6 SE 15 24 8 13 1019.6 1019.6 0.0
23/12:30pm 21.9 19.9 12.7 56 5.2 SE 15 24 8 13 1019.9 1019.9 0.0
23/12:00pm 22.7 21.0 13.5 56 5.3 SSE 15 28 8 15 1020.1 1020.1 0.0
23/11:30am 21.9 20.0 13.0 57 5.1 ESE 15 24 8 13 1020.4 1020.4 0.0
23/11:00am 20.5 18.5 12.7 61 4.4 ESE 15 28 8 15 1020.6 1020.6 0.0
23/10:30am 20.1 18.2 13.1 64 4.0 SE 15 32 8 17 1020.6 1020.6 0.0
23/10:00am 19.7 17.9 13.4 67 3.6 ESE 15 30 8 16 1020.6 1020.6 0.0
23/09:30am 19.0 16.8 13.4 70 3.2 SE 17 28 9 15 1020.4 1020.4 0.0
23/09:00am 17.9 16.2 13.6 76 2.4 SE 15 26 8 14 1020.2 1020.2 0.0
23/08:30am 16.9 16.4 13.8 82 1.8 SSE 9 19 5 10 1020.1 1020.1 0.0
23/08:00am 16.7 15.8 13.8 83 1.6 SSE 11 22 6 12 1020.0 1020.0 0.0
23/07:30am 16.5 15.6 13.6 83 1.6 SSE 11 20 6 11 1019.6 1019.6 0.0
23/07:00am 16.4 15.9 13.7 84 1.5 SSE 9 17 5 9 1019.4 1019.4 0.0
23/06:30am 16.4 15.4 13.5 83 1.6 SE 11 22 6 12 1019.2 1019.2 0.0
23/06:00am 16.4 15.0 13.5 83 1.6 SSE 13 26 7 14 1019.1 1019.1 0.0
23/05:30am 16.3 14.9 13.4 83 1.6 SSE 13 22 7 12 1019.0 1019.0 0.0
23/05:00am 16.2 14.8 13.5 84 1.5 SE 13 26 7 14 1018.9 1018.9 0.0
23/04:30am 16.3 15.0 13.6 84 1.5 SSE 13 22 7 12 1018.9 1018.9 0.0
23/04:00am 16.4 15.0 13.5 83 1.6 SSE 13 24 7 13 1018.7 1018.7 0.0
23/03:30am 16.6 15.2 13.3 81 1.8 SSE 13 24 7 13 1018.6 1018.6 0.0
23/03:00am 17.0 15.3 13.5 80 2.0 SE 15 24 8 13 1018.8 1018.8 0.0
23/02:30am 17.0 14.8 13.3 79 2.1 SE 17 24 9 13 1018.7 1018.7 0.0
23/02:00am 17.1 14.9 13.2 78 2.2 SE 17 26 9 14 1018.9 1018.9 0.0
23/01:30am 17.2 15.0 13.3 78 2.2 SE 17 30 9 16 1019.2 1019.2 0.0
23/01:00am 17.3 15.1 13.4 78 2.2 SE 17 30 9 16 1019.2 1019.2 0.0
23/12:30am 17.5 15.7 13.4 77 2.3 SE 15 26 8 14 1019.3 1019.3 0.0
23/12:00am 17.7 15.2 13.6 77 2.3 SE 19 32 10 17 1019.2 1019.2 0.0
 
Date/Time
EDT
Temp
°C
App
Temp
°C
Dew
Point
°C
Rel
Hum
%
Delta-T
°C
Wind Press
QNH
hPa
Press
MSL
hPa
Rain since
9am
mm
Dir  Spd
km/h
Gust
km/h
Spd
kts
Gust
kts
22/11:30pm 17.9 15.9 13.8 77 2.3 SE 17 30 9 16 1019.3 1019.3 0.0
22/11:00pm 18.1 15.5 13.8 76 2.4 SSE 20 35 11 19 1019.5 1019.5 0.0
22/10:30pm 18.2 16.3 14.1 77 2.3 SSE 17 33 9 18 1019.4 1019.4 0.0
22/10:00pm 18.3 16.3 13.8 75 2.6 SE 17 30 9 16 1019.2 1019.2 0.0
22/09:30pm 18.5 16.5 13.8 74 2.7 SE 17 33 9 18 1019.1 1019.1 0.0
22/09:00pm 18.8 16.8 13.9 73 2.8 SE 17 30 9 16 1018.6 1018.6 0.0
22/08:30pm 19.2 17.3 14.2 73 2.9 SE 17 35 9 19 1018.2 1018.2 0.0
22/08:00pm 19.2 17.3 14.2 73 2.9 SSE 17 28 9 15 1017.6 1017.6 0.0
22/07:30pm 19.5 16.6 14.1 71 3.1 SE 22 43 12 23 1017.2 1017.2 0.0
22/07:00pm 19.7 17.8 14.3 71 3.1 SE 17 33 9 18 1016.9 1016.9 0.0
22/06:30pm 20.0 18.3 14.8 72 3.0 SE 17 32 9 17 1016.7 1016.7 0.0
22/06:00pm 20.8 18.8 15.6 72 3.1 SSE 20 35 11 19 1016.5 1016.5 0.0
22/05:30pm 21.4 19.3 15.3 68 3.6 SE 20 39 11 21 1016.3 1016.3 0.0
22/05:00pm 21.5 19.9 15.1 67 3.8 SSE 17 30 9 16 1016.3 1016.3 0.0
22/04:30pm 21.6 20.0 15.0 66 3.9 SE 17 35 9 19 1016.0 1016.0 0.0
22/04:00pm 20.6 18.8 15.6 73 3.0 SSE 19 30 10 16 1016.1 1016.1 0.0
22/03:30pm 20.8 18.7 15.1 70 3.4 SE 20 44 11 24 1016.2 1016.2 0.0
22/03:00pm 20.4 19.6 16.0 76 2.6 SSE 15 32 8 17 1016.2 1016.2 0.0
22/02:30pm 20.5 19.2 15.9 75 2.7 SSE 17 32 9 17 1016.2 1016.2 0.0
22/02:00pm 20.5 19.1 15.5 73 3.0 SSE 17 30 9 16 1016.4 1016.4 0.0
22/01:30pm 20.4 19.1 15.8 75 2.7 SE 17 28 9 15 1016.2 1016.2 0.0
22/01:00pm 20.4 18.7 15.8 75 2.7 SE 19 32 10 17 1016.4 1016.4 0.0
22/12:30pm 20.4 20.0 16.2 77 2.5 SSE 13 26 7 14 1016.6 1016.6 0.0
22/12:00pm 19.8 18.3 16.3 80 2.1 SE 19 30 10 16 1016.9 1016.9 0.0
22/11:30am 19.1 18.0 16.3 84 1.7 SSE 17 26 9 14 1017.0 1017.0 0.0
22/11:00am 19.2 18.2 16.6 85 1.6 SSE 17 32 9 17 1016.8 1016.8 0.0
22/10:30am 18.8 17.5 16.9 89 1.1 SSE 19 33 10 18 1016.6 1016.6 0.0
22/10:00am 18.9 18.0 16.9 88 1.2 SSE 17 32 9 17 1016.5 1016.5 0.0
22/09:30am 18.5 18.5 17.3 93 0.7 SSE 13 20 7 11 1016.3 1016.3 0.0
22/09:00am 18.0 18.3 18.0 100 0.0 S 13 20 7 11 1016.0 1016.0 9.2
22/08:51am 18.0 18.7 18.0 100 0.0 SSE 11 20 6 11 1015.8 1015.8 9.2
22/08:30am 18.0 18.7 18.0 100 0.0 SSE 11 19 6 10 1015.7 1015.7 9.2
22/08:00am 18.0 18.7 18.0 100 0.0 SSE 11 19 6 10 1015.3 1015.3 9.0
22/07:34am 18.0 18.3 18.0 100 0.0 SSE 13 24 7 13 1014.7 1014.7 9.0
22/07:30am 18.0 18.3 18.0 100 0.0 SSE 13 20 7 11 1014.6 1014.6 9.0
22/07:00am 18.1 19.2 18.1 100 0.0 S 9 15 5 8 1014.2 1014.2 9.0
22/06:30am 18.2 19.4 18.2 100 0.0 S 9 17 5 9 1013.6 1013.6 8.8
22/06:00am 18.4 19.3 18.4 100 0.0 S 11 24 6 13 1013.3 1013.3 8.8
22/05:30am 18.6 19.8 18.3 98 0.2 SSW 9 15 5 8 1013.1 1013.1 8.6
22/05:04am 18.7 20.0 18.4 98 0.2 S 9 15 5 8 1012.9 1012.9 8.6
22/05:00am 18.8 20.1 18.5 98 0.2 S 9 17 5 9 1012.8 1012.8 8.6
22/04:42am 19.2 21.3 18.9 98 0.2 S 6 13 3 7 1012.6 1012.6 8.6
22/04:36am 19.3 22.2 19.0 98 0.2 S 2 9 1 5 1012.5 1012.5 8.6
22/04:30am 19.5 22.5 19.2 98 0.2 SSW 2 7 1 4 1012.5 1012.5 8.6
22/04:21am 19.5 22.1 19.2 98 0.2 SW 4 11 2 6 1012.4 1012.4 8.6
22/04:04am 19.8 23.3 19.5 98 0.2 CALM 0 7 0 4 1012.2 1012.2 8.6
22/04:00am 19.8 22.9 19.5 98 0.2 S 2 9 1 5 1012.1 1012.1 8.6
22/03:42am 20.1 22.9 19.6 97 0.3 SSW 4 9 2 5 1012.0 1012.0 8.4
22/03:30am 20.1 21.9 19.6 97 0.3 SSW 9 13 5 7 1011.9 1011.9 8.4
22/03:00am 20.9 22.7 20.4 97 0.3 NW 11 15 6 8 1011.4 1011.4 8.2
22/02:30am 20.9 23.3 20.1 95 0.5 NW 7 15 4 8 1011.2 1011.2 8.2
22/02:00am 20.9 23.0 20.2 96 0.4 NW 9 13 5 7 1011.3 1011.3 8.2
22/01:30am 20.7 22.7 20.0 96 0.4 NW 9 17 5 9 1011.1 1011.1 8.2
22/01:00am 20.7 21.9 20.0 96 0.4 NW 13 20 7 11 1011.0 1011.0 8.2
22/12:30am 20.8 22.8 20.0 95 0.5 WNW 9 15 5 8 1010.8 1010.8 8.2
22/12:00am 20.8 22.0 19.8 94 0.6 NW 13 20 7 11 1010.7 1010.7 8.2
 
Date/Time
EDT
Temp
°C
App
Temp
°C
Dew
Point
°C
Rel
Hum
%
Delta-T
°C
Wind Press
QNH
hPa
Press
MSL
hPa
Rain since
9am
mm
Dir  Spd
km/h
Gust
km/h
Spd
kts
Gust
kts
21/11:30pm 20.9 22.2 20.1 95 0.5 NW 13 22 7 12 1010.8 1010.8 8.2
21/11:00pm 21.2 23.0 20.4 95 0.5 NW 11 17 6 9 1011.0 1011.0 8.2
21/10:30pm 21.2 22.5 20.2 94 0.6 NNW 13 20 7 11 1010.9 1010.9 8.2
21/10:00pm 21.2 23.4 19.7 91 1.0 NW 7 13 4 7 1010.6 1010.6 8.2
21/09:30pm 21.5 23.2 19.4 88 1.3 WNW 9 17 5 9 1010.4 1010.4 8.2
21/09:00pm 22.2 23.6 19.6 85 1.7 NW 11 19 6 10 1010.0 1010.0 8.2
21/08:30pm 22.9 25.1 20.4 86 1.6 WNW 9 19 5 10 1009.7 1009.7 8.2
21/08:00pm 23.5 26.3 21.6 89 1.3 NNW 9 13 5 7 1009.1 1009.1 8.2
21/07:30pm 23.4 26.5 21.5 89 1.3 NE 7 11 4 6 1009.0 1009.0 8.2
21/07:00pm 23.7 26.7 21.2 86 1.6 NNE 7 11 4 6 1008.9 1008.9 8.2
21/06:30pm 23.8 26.8 20.9 84 1.9 N 6 17 3 9 1008.8 1008.8 8.2
21/06:00pm 24.7 25.9 20.6 78 2.7 N 15 26 8 14 1008.8 1008.8 8.2
21/05:30pm 24.6 26.6 20.7 79 2.6 NE 11 17 6 9 1008.7 1008.7 8.2
21/05:00pm 25.3 27.0 21.0 77 2.8 NE 13 24 7 13 1008.7 1008.7 8.2
21/04:30pm 24.9 27.2 20.6 77 2.8 E 9 15 5 8 1008.9 1008.9 8.2
21/04:00pm 24.9 27.9 21.2 80 2.4 E 7 13 4 7 1009.2 1009.2 8.2
21/03:30pm 24.4 27.4 21.3 83 2.0 NE 7 15 4 8 1009.6 1009.6 8.2
21/03:00pm 24.3 27.5 23.1 93 0.8 NNE 11 19 6 10 1010.1 1010.1 8.2
21/02:50pm 22.9 26.7 21.7 93 0.8 NNE 4 9 2 5 1010.2 1010.2 8.2
21/02:30pm 22.6 25.7 21.1 91 1.0 N 6 13 3 7 1010.4 1010.4 7.8
21/02:19pm 23.0 25.6 20.1 84 1.9 SW 6 13 3 7 1010.6 1010.6 0.6
21/02:00pm 23.8 26.2 20.9 84 1.9 SSW 9 15 5 8 1010.4 1010.4 0.0
21/01:30pm 24.1 26.6 20.2 79 2.5 SSW 7 11 4 6 1010.9 1010.9 0.0
21/01:00pm 25.3 28.5 19.7 71 3.6 N 2 6 1 3 1011.1 1011.1 0.0
21/12:30pm 25.2 27.9 20.7 76 2.9 ESE 7 11 4 6 1011.5 1011.5 0.0
21/12:00pm 23.9 26.3 20.0 79 2.5 NNE 7 13 4 7 1012.1 1012.1 0.0
21/11:30am 23.3 27.1 20.2 83 2.0 CALM 0 6 0 3 1012.4 1012.4 0.0

Other Formats:

Comma delimited format used in spreadsheet applications
http://www.bom.gov.au/fwo/IDV60801/IDV60801.95936.axf

JavaScript Object Notation format (JSON) in row-major order
http://www.bom.gov.au/fwo/IDV60801/IDV60801.95936.json